Time;durP1;ratioP1;P1;durP2;ratioP2;P2;SDS_P1;SDS_P2;PMS_P1;PMS_P2;Temp;Humidity;BMP_temperature;BMP_pressure;BME280_temperature;BME280_humidity;BME280_pressure;Samples;Min_cycle;Max_cycle;Signal;HPM_P1;HPM_P2
2021/11/26 00:12:25;;;;;;;2.90;1.98;;;23.20;58.70;;;;;;31618269;28;20100;-44
2021/11/26 00:27:27;;;;;;;2.35;1.70;;;23.00;58.90;;;;;;31634280;28;20056;-45
2021/11/26 00:42:29;;;;;;;3.00;1.92;;;22.90;59.20;;;;;;31633441;28;20053;-45
2021/11/26 00:57:31;;;;;;;3.80;2.30;;;22.90;58.90;;;;;;31626700;28;20080;-48
2021/11/26 01:12:34;;;;;;;2.70;1.90;;;23.30;58.90;;;;;;31623892;28;20052;-46
2021/11/26 01:27:37;;;;;;;2.35;1.52;;;23.40;58.50;;;;;;31626793;28;20048;-38
2021/11/26 01:42:39;;;;;;;3.10;1.80;;;23.40;58.70;;;;;;31621812;28;20048;-50
2021/11/26 01:57:44;;;;;;;1.75;1.58;;;23.30;58.40;;;;;;31618661;28;20106;-52
2021/11/26 02:12:47;;;;;;;2.63;1.85;;;23.20;58.70;;;;;;31645395;28;20107;-39
2021/11/26 02:27:53;;;;;;;2.28;1.52;;;23.10;58.70;;;;;;31644026;28;20071;-45
2021/11/26 02:42:55;;;;;;;3.30;1.00;;;23.00;59.10;;;;;;31644142;28;20044;-53
2021/11/26 02:57:58;;;;;;;4.80;1.20;;;22.90;59.50;;;;;;31638146;28;20059;-53
2021/11/26 03:13:11;;;;;;;1.52;1.20;;;23.00;59.90;;;;;;31637247;28;20052;-38
2021/11/26 03:28:14;;;;;;;1.65;1.08;;;23.40;59.40;;;;;;31639623;28;20133;-41
2021/11/26 03:43:18;;;;;;;1.50;1.13;;;23.40;59.30;;;;;;31633008;28;20096;-41
2021/11/26 03:58:20;;;;;;;1.40;1.17;;;23.30;60.00;;;;;;31631106;28;20052;-44
2021/11/26 04:13:23;;;;;;;1.10;0.85;;;23.20;59.60;;;;;;31629749;28;20049;-44
2021/11/26 04:28:25;;;;;;;2.05;0.82;;;23.20;59.60;;;;;;31630198;28;20044;-44
2021/11/26 04:43:27;;;;;;;4.03;1.30;;;23.10;59.60;;;;;;31625032;28;20125;-40
2021/11/26 04:58:34;;;;;;;1.52;0.80;;;23.00;59.80;;;;;;31626151;28;20104;-42
2021/11/26 05:13:43;;;;;;;3.40;1.05;;;22.90;60.00;;;;;;31624484;28;20083;-45
2021/11/26 05:28:45;;;;;;;2.27;0.97;;;23.10;60.10;;;;;;31624888;28;20052;-48
2021/11/26 05:43:47;;;;;;;5.00;1.38;;;23.40;59.30;;;;;;31615481;28;20040;-41
2021/11/26 05:58:49;;;;;;;4.15;1.77;;;23.30;58.90;;;;;;31574003;28;20100;-47
2021/11/26 06:13:51;;;;;;;13.80;4.35;;;23.30;58.80;;;;;;31582428;28;20096;-45
2021/11/26 06:28:53;;;;;;;23.92;8.68;;;23.10;58.30;;;;;;31617031;28;20055;-43
2021/11/26 06:43:56;;;;;;;13.25;6.60;;;22.80;53.90;;;;;;31618122;28;20055;-46
2021/11/26 06:59:00;;;;;;;16.08;9.55;;;22.60;53.50;;;;;;31641022;28;20090;-44
2021/11/26 07:14:02;;;;;;;13.10;7.28;;;22.70;51.30;;;;;;31643807;28;20044;-47
2021/11/26 07:29:04;;;;;;;9.45;6.07;;;22.70;51.70;;;;;;31639128;28;20116;-44
2021/11/26 07:44:06;;;;;;;14.75;7.93;;;22.60;51.90;;;;;;31635073;28;20041;-44
2021/11/26 07:59:08;;;;;;;12.73;7.90;;;22.50;50.70;;;;;;31634576;28;20057;-44
2021/11/26 08:14:10;;;;;;;13.35;5.78;;;22.50;50.40;;;;;;31629582;28;20096;-47
2021/11/26 08:29:13;;;;;;;13.50;9.27;;;22.40;50.30;;;;;;31628581;28;20054;-47
2021/11/26 08:44:15;;;;;;;10.80;7.97;;;22.40;50.30;;;;;;31630444;28;20048;-38
2021/11/26 08:59:17;;;;;;;10.68;6.65;;;22.80;50.60;;;;;;31625166;28;20063;-50
2021/11/26 09:14:20;;;;;;;6.65;4.93;;;23.00;49.60;;;;;;31623065;28;20049;-45
2021/11/26 09:29:22;;;;;;;11.35;5.03;;;22.90;48.70;;;;;;31626425;28;20081;-38
2021/11/26 09:44:24;;;;;;;10.23;7.97;;;23.00;51.80;;;;;;31624930;28;20052;-42
2021/11/26 09:59:26;;;;;;;10.40;6.88;;;22.90;51.30;;;;;;31621947;28;20056;-47
2021/11/26 10:14:32;;;;;;;10.27;6.15;;;22.80;51.40;;;;;;31624321;28;20040;-45
2021/11/26 10:29:41;;;;;;;9.18;5.28;;;22.70;48.60;;;;;;31643000;28;20053;-44
2021/11/26 10:44:56;;;;;;;10.85;6.50;;;22.20;49.50;;;;;;31646032;28;20044;-41
2021/11/26 11:00:15;;;;;;;11.50;7.05;;;22.60;50.70;;;;;;31645037;28;20060;-42
2021/11/26 11:15:20;;;;;;;11.63;6.13;;;22.80;47.00;;;;;;31641709;28;20049;-45
2021/11/26 11:30:23;;;;;;;14.07;9.82;;;22.70;47.50;;;;;;31636001;28;20048;-42
2021/11/26 11:45:25;;;;;;;12.38;7.72;;;22.60;48.00;;;;;;31631977;28;20064;-47
2021/11/26 12:00:34;;;;;;;20.92;7.53;;;22.40;48.40;;;;;;31630969;28;20055;-49
2021/11/26 12:15:42;;;;;;;12.90;7.22;;;22.50;48.30;;;;;;31624137;28;20060;-50
2021/11/26 12:30:44;;;;;;;11.75;5.78;;;22.60;49.30;;;;;;31616853;28;20040;-51
2021/11/26 12:45:46;;;;;;;15.07;5.80;;;23.00;50.20;;;;;;31622623;28;20052;-40
2021/11/26 13:00:57;;;;;;;15.65;8.65;;;23.20;49.70;;;;;;31225404;28;10000807;-50
2021/11/26 13:16:00;;;;;;;13.93;7.45;;;23.00;50.60;;;;;;31613069;28;20058;-40
2021/11/26 13:31:06;;;;;;;14.40;7.60;;;23.00;50.50;;;;;;31621478;28;20131;-39
2021/11/26 13:46:16;;;;;;;17.52;8.23;;;22.90;50.20;;;;;;31623755;28;20056;-40
2021/11/26 14:01:39;;;;;;;14.52;7.80;;;22.50;49.30;;;;;;31612092;28;20053;-42
2021/11/26 14:17:02;;;;;;;12.27;8.63;;;22.40;49.30;;;;;;31530097;28;20124;-42
2021/11/26 14:32:13;;;;;;;9.07;6.80;;;22.00;48.70;;;;;;31566752;28;20036;-46
2021/11/26 14:47:32;;;;;;;59.08;26.80;;;22.20;48.70;;;;;;31524829;28;20104;-44
2021/11/26 15:02:34;;;;;;;19.90;13.05;;;22.60;47.10;;;;;;31537707;28;20136;-45
2021/11/26 15:17:37;;;;;;;16.42;12.13;;;23.00;48.70;;;;;;31557739;28;20046;-48
2021/11/26 15:32:39;;;;;;;14.35;10.30;;;23.00;49.30;;;;;;31578917;28;20044;-44
2021/11/26 15:47:46;;;;;;;13.15;10.15;;;22.90;49.80;;;;;;31554903;28;20044;-50
2021/11/26 16:02:48;;;;;;;12.38;10.43;;;22.90;49.80;;;;;;31552355;28;20056;-47
2021/11/26 16:17:50;;;;;;;15.20;9.38;;;22.70;49.90;;;;;;31556720;28;20060;-47
2021/11/26 16:33:20;;;;;;;15.95;8.25;;;22.90;50.00;;;;;;31608433;28;20045;-49
2021/11/26 16:48:22;;;;;;;23.03;7.20;;;23.00;49.70;;;;;;31541468;28;20104;-48
2021/11/26 17:03:24;;;;;;;15.20;6.47;;;23.00;50.60;;;;;;31573822;28;20052;-46
2021/11/26 17:18:26;;;;;;;8.75;6.22;;;23.00;51.10;;;;;;31560191;28;20044;-55
2021/11/26 17:33:28;;;;;;;15.88;5.95;;;22.80;51.30;;;;;;31547015;28;20055;-57
2021/11/26 17:48:30;;;;;;;24.42;7.07;;;22.80;52.20;;;;;;31225862;28;10000011;-54
2021/11/26 18:03:34;;;;;;;19.88;7.55;;;22.80;52.70;;;;;;31528753;28;20048;-52
2021/11/26 18:18:38;;;;;;;23.40;7.25;;;22.70;54.40;;;;;;31558559;28;20124;-41
2021/11/26 18:33:41;;;;;;;17.10;6.38;;;22.60;54.90;;;;;;31501184;28;20056;-42
2021/11/26 18:48:43;;;;;;;16.35;6.18;;;22.60;55.50;;;;;;31515810;28;20052;-56
2021/11/26 19:03:45;;;;;;;17.98;5.78;;;22.60;55.80;;;;;;31618484;28;20075;-41
2021/11/26 19:18:47;;;;;;;11.05;4.90;;;23.00;55.80;;;;;;31545338;28;20045;-44
2021/11/26 19:33:49;;;;;;;12.20;5.85;;;23.20;55.80;;;;;;31607071;28;20040;-45
2021/11/26 19:48:51;;;;;;;17.92;5.50;;;23.20;56.30;;;;;;31567518;28;20045;-53
2021/11/26 20:03:53;;;;;;;13.55;4.70;;;24.00;55.70;;;;;;31586386;28;20033;-47
2021/11/26 20:18:55;;;;;;;14.18;5.45;;;23.60;56.70;;;;;;31606274;28;20040;-51
2021/11/26 20:33:57;;;;;;;6.75;3.90;;;23.20;57.30;;;;;;31565441;28;20083;-49
2021/11/26 20:49:00;;;;;;;9.10;4.65;;;23.20;56.80;;;;;;31574780;28;20045;-53
2021/11/26 21:04:03;;;;;;;12.05;4.30;;;23.20;56.60;;;;;;31534070;28;20071;-49
2021/11/26 21:19:13;;;;;;;4.63;3.38;;;23.20;56.60;;;;;;31531923;28;20066;-49
2021/11/26 21:34:15;;;;;;;6.30;3.58;;;23.10;56.70;;;;;;31587890;28;20048;-42
2021/11/26 21:49:17;;;;;;;21.75;15.43;;;23.10;56.90;;;;;;31496586;28;20079;-49
2021/11/26 22:04:19;;;;;;;7.85;4.65;;;22.90;56.80;;;;;;31517197;28;20130;-38
2021/11/26 22:19:21;;;;;;;6.22;4.97;;;23.00;56.90;;;;;;31583083;28;20052;-45
2021/11/26 22:34:24;;;;;;;5.65;4.28;;;22.90;56.90;;;;;;31545999;28;20049;-48
2021/11/26 22:49:26;;;;;;;6.50;4.35;;;22.90;57.20;;;;;;31552892;28;20060;-45
2021/11/26 23:04:28;;;;;;;6.03;4.30;;;22.90;57.20;;;;;;31624325;28;20134;-47
2021/11/26 23:19:30;;;;;;;5.03;3.83;;;22.80;57.50;;;;;;31518133;28;20045;-38
2021/11/26 23:34:32;;;;;;;4.90;3.40;;;22.90;57.30;;;;;;31564438;28;20072;-41
2021/11/26 23:49:34;;;;;;;3.72;3.17;;;23.40;57.90;;;;;;31564842;28;20056;-44
